sensor_id;sensor_type;location;lat;lon;timestamp;pressure;altitude;pressure_sealevel;temperature;humidity
1776;BME280;885;42.626;23.200;2023-07-30T00:02:15;84918.38;;;18.09;88.70
1776;BME280;885;42.626;23.200;2023-07-30T00:04:42;84863.91;;;18.07;88.65
1776;BME280;885;42.626;23.200;2023-07-30T00:07:11;84856.34;;;18.03;88.92
1776;BME280;885;42.626;23.200;2023-07-30T00:09:38;84874.06;;;18.06;88.56
1776;BME280;885;42.626;23.200;2023-07-30T00:12:06;85064.50;;;18.15;88.76
1776;BME280;885;42.626;23.200;2023-07-30T00:14:33;85009.41;;;18.04;90.28
1776;BME280;885;42.626;23.200;2023-07-30T00:17:00;85011.97;;;17.99;90.68
1776;BME280;885;42.626;23.200;2023-07-30T00:19:27;84936.44;;;17.92;91.07
1776;BME280;885;42.626;23.200;2023-07-30T00:21:54;84922.63;;;17.86;91.16
1776;BME280;885;42.626;23.200;2023-07-30T00:24:22;84920.38;;;17.87;91.09
1776;BME280;885;42.626;23.200;2023-07-30T00:26:49;84958.81;;;17.83;91.94
1776;BME280;885;42.626;23.200;2023-07-30T00:29:16;84952.75;;;17.79;91.40
1776;BME280;885;42.626;23.200;2023-07-30T00:31:43;84857.13;;;17.72;91.81
1776;BME280;885;42.626;23.200;2023-07-30T00:34:10;84830.06;;;17.69;91.75
1776;BME280;885;42.626;23.200;2023-07-30T00:36:36;84840.25;;;17.68;91.80
1776;BME280;885;42.626;23.200;2023-07-30T00:39:03;84923.88;;;17.72;91.67
1776;BME280;885;42.626;23.200;2023-07-30T00:41:32;84924.06;;;17.70;91.70
1776;BME280;885;42.626;23.200;2023-07-30T00:43:58;84897.72;;;17.68;92.06
1776;BME280;885;42.626;23.200;2023-07-30T00:46:25;84815.59;;;17.62;92.50
1776;BME280;885;42.626;23.200;2023-07-30T00:48:52;84889.81;;;17.60;92.81
1776;BME280;885;42.626;23.200;2023-07-30T00:51:19;84949.19;;;17.55;94.14
1776;BME280;885;42.626;23.200;2023-07-30T00:53:46;84911.75;;;17.39;95.23
1776;BME280;885;42.626;23.200;2023-07-30T00:56:14;84882.03;;;17.34;95.32
1776;BME280;885;42.626;23.200;2023-07-30T00:58:43;84910.94;;;17.32;95.40
1776;BME280;885;42.626;23.200;2023-07-30T01:01:11;84865.81;;;17.31;95.18
1776;BME280;885;42.626;23.200;2023-07-30T01:03:39;84870.91;;;17.30;94.58
1776;BME280;885;42.626;23.200;2023-07-30T01:06:05;84946.25;;;17.31;94.97
1776;BME280;885;42.626;23.200;2023-07-30T01:08:32;84872.25;;;17.31;94.29
1776;BME280;885;42.626;23.200;2023-07-30T01:10:59;84958.06;;;17.35;94.11
1776;BME280;885;42.626;23.200;2023-07-30T01:13:28;84987.31;;;17.38;94.32
1776;BME280;885;42.626;23.200;2023-07-30T01:15:57;85030.91;;;17.40;93.97
1776;BME280;885;42.626;23.200;2023-07-30T01:18:23;85066.03;;;17.41;93.99
1776;BME280;885;42.626;23.200;2023-07-30T01:20:57;85048.28;;;17.38;94.01
1776;BME280;885;42.626;23.200;2023-07-30T01:23:24;85043.91;;;17.39;93.59
1776;BME280;885;42.626;23.200;2023-07-30T01:25:57;84987.47;;;17.36;93.33
1776;BME280;885;42.626;23.200;2023-07-30T01:28:27;84904.72;;;17.30;93.59
1776;BME280;885;42.626;23.200;2023-07-30T01:30:54;84820.47;;;17.16;94.30
1776;BME280;885;42.626;23.200;2023-07-30T01:33:22;84867.59;;;17.19;94.25
1776;BME280;885;42.626;23.200;2023-07-30T01:35:49;84980.41;;;17.26;94.56
1776;BME280;885;42.626;23.200;2023-07-30T01:38:18;84934.09;;;17.30;94.35
1776;BME280;885;42.626;23.200;2023-07-30T01:40:44;84980.06;;;17.30;94.17
1776;BME280;885;42.626;23.200;2023-07-30T01:43:12;84977.38;;;17.28;94.34
1776;BME280;885;42.626;23.200;2023-07-30T01:45:38;84931.44;;;17.20;95.25
1776;BME280;885;42.626;23.200;2023-07-30T01:48:06;84919.66;;;17.15;94.91
1776;BME280;885;42.626;23.200;2023-07-30T01:50:33;84821.22;;;17.08;94.60
1776;BME280;885;42.626;23.200;2023-07-30T01:52:59;84792.69;;;17.06;94.97
1776;BME280;885;42.626;23.200;2023-07-30T01:55:27;84765.66;;;17.03;95.09
1776;BME280;885;42.626;23.200;2023-07-30T01:57:54;84673.13;;;17.03;93.91
1776;BME280;885;42.626;23.200;2023-07-30T02:00:21;84717.34;;;17.06;93.90
1776;BME280;885;42.626;23.200;2023-07-30T02:02:48;84800.06;;;17.12;93.90
1776;BME280;885;42.626;23.200;2023-07-30T02:05:15;84823.72;;;17.12;94.50
1776;BME280;885;42.626;23.200;2023-07-30T02:07:41;84886.91;;;17.12;94.72
1776;BME280;885;42.626;23.200;2023-07-30T02:10:08;84845.69;;;17.07;95.39
1776;BME280;885;42.626;23.200;2023-07-30T02:12:36;84874.78;;;17.03;95.77
1776;BME280;885;42.626;23.200;2023-07-30T02:15:03;84831.88;;;17.01;95.88
1776;BME280;885;42.626;23.200;2023-07-30T02:17:30;84843.19;;;17.03;95.47
1776;BME280;885;42.626;23.200;2023-07-30T02:19:57;84781.63;;;16.94;95.54
1776;BME280;885;42.626;23.200;2023-07-30T02:22:24;84780.56;;;16.97;95.36
1776;BME280;885;42.626;23.200;2023-07-30T02:24:50;84842.22;;;16.98;95.37
1776;BME280;885;42.626;23.200;2023-07-30T02:27:17;84842.03;;;17.00;95.54
1776;BME280;885;42.626;23.200;2023-07-30T02:29:45;84845.09;;;16.98;95.50
1776;BME280;885;42.626;23.200;2023-07-30T02:32:12;84774.88;;;16.89;96.35
1776;BME280;885;42.626;23.200;2023-07-30T02:34:39;84886.97;;;16.95;95.98
1776;BME280;885;42.626;23.200;2023-07-30T02:37:05;84972.94;;;16.97;96.35
1776;BME280;885;42.626;23.200;2023-07-30T02:39:32;84983.63;;;16.90;97.22
1776;BME280;885;42.626;23.200;2023-07-30T02:41:59;85020.75;;;16.92;97.75
1776;BME280;885;42.626;23.200;2023-07-30T02:44:26;85012.66;;;16.86;97.54
1776;BME280;885;42.626;23.200;2023-07-30T02:46:54;85041.72;;;16.82;97.94
1776;BME280;885;42.626;23.200;2023-07-30T02:49:21;84948.53;;;16.81;97.46
1776;BME280;885;42.626;23.200;2023-07-30T02:51:47;84870.19;;;16.74;96.94
1776;BME280;885;42.626;23.200;2023-07-30T02:54:15;84792.88;;;16.72;96.63
1776;BME280;885;42.626;23.200;2023-07-30T02:56:45;84697.41;;;16.65;96.38
1776;BME280;885;42.626;23.200;2023-07-30T02:59:12;84803.03;;;16.71;96.56
1776;BME280;885;42.626;23.200;2023-07-30T03:01:38;84797.94;;;16.72;96.29
1776;BME280;885;42.626;23.200;2023-07-30T03:04:07;84693.19;;;16.64;95.93
1776;BME280;885;42.626;23.200;2023-07-30T03:06:33;84813.19;;;16.61;97.66
1776;BME280;885;42.626;23.200;2023-07-30T03:09:00;84894.56;;;16.66;97.29
1776;BME280;885;42.626;23.200;2023-07-30T03:11:28;84829.69;;;16.69;96.18
1776;BME280;885;42.626;23.200;2023-07-30T03:13:54;84956.97;;;16.75;95.85
1776;BME280;885;42.626;23.200;2023-07-30T03:16:21;84950.22;;;16.78;95.98
1776;BME280;885;42.626;23.200;2023-07-30T03:18:48;85049.66;;;16.82;96.09
1776;BME280;885;42.626;23.200;2023-07-30T03:21:16;84992.09;;;16.75;96.42
1776;BME280;885;42.626;23.200;2023-07-30T03:23:43;85006.44;;;16.75;96.20
1776;BME280;885;42.626;23.200;2023-07-30T03:26:10;84951.09;;;16.68;96.79
1776;BME280;885;42.626;23.200;2023-07-30T03:28:37;84960.72;;;16.64;97.45
1776;BME280;885;42.626;23.200;2023-07-30T03:31:03;84894.41;;;16.60;97.02
1776;BME280;885;42.626;23.200;2023-07-30T03:33:31;84877.72;;;16.54;97.61
1776;BME280;885;42.626;23.200;2023-07-30T03:35:59;84972.72;;;16.58;97.74
1776;BME280;885;42.626;23.200;2023-07-30T03:38:27;85046.81;;;16.64;97.23
1776;BME280;885;42.626;23.200;2023-07-30T03:40:54;85081.94;;;16.65;96.97
1776;BME280;885;42.626;23.200;2023-07-30T03:43:21;84898.78;;;16.59;96.52
1776;BME280;885;42.626;23.200;2023-07-30T03:45:48;84903.38;;;16.56;97.08
1776;BME280;885;42.626;23.200;2023-07-30T03:48:15;85115.00;;;16.64;96.83
1776;BME280;885;42.626;23.200;2023-07-30T03:50:41;85195.03;;;16.77;96.50
1776;BME280;885;42.626;23.200;2023-07-30T03:53:08;85420.31;;;16.86;96.88
1776;BME280;885;42.626;23.200;2023-07-30T03:55:36;85564.25;;;16.91;97.21
1776;BME280;885;42.626;23.200;2023-07-30T03:58:09;85552.38;;;16.86;97.89
1776;BME280;885;42.626;23.200;2023-07-30T04:00:36;85542.59;;;16.83;98.26
1776;BME280;885;42.626;23.200;2023-07-30T04:03:03;85543.75;;;16.78;98.99
1776;BME280;885;42.626;23.200;2023-07-30T04:05:29;85629.50;;;16.73;99.78
1776;BME280;885;42.626;23.200;2023-07-30T04:07:57;85715.97;;;16.78;99.78
1776;BME280;885;42.626;23.200;2023-07-30T04:10:23;85913.09;;;16.81;99.87
1776;BME280;885;42.626;23.200;2023-07-30T04:12:52;85924.97;;;16.86;99.71
1776;BME280;885;42.626;23.200;2023-07-30T04:15:18;85937.28;;;16.84;99.52
1776;BME280;885;42.626;23.200;2023-07-30T04:17:45;85838.44;;;16.81;99.38
1776;BME280;885;42.626;23.200;2023-07-30T04:20:12;85935.09;;;16.85;99.58
1776;BME280;885;42.626;23.200;2023-07-30T04:22:39;86033.13;;;16.89;99.29
1776;BME280;885;42.626;23.200;2023-07-30T04:25:07;86046.38;;;16.84;99.57
1776;BME280;885;42.626;23.200;2023-07-30T04:27:36;86132.13;;;16.90;99.31
1776;BME280;885;42.626;23.200;2023-07-30T04:30:05;86155.63;;;16.93;98.99
1776;BME280;885;42.626;23.200;2023-07-30T04:32:32;86123.50;;;17.01;97.96
1776;BME280;885;42.626;23.200;2023-07-30T04:35:00;86362.72;;;17.10;98.80
1776;BME280;885;42.626;23.200;2023-07-30T04:37:28;86538.84;;;17.19;98.45
1776;BME280;885;42.626;23.200;2023-07-30T04:39:56;86666.63;;;17.20;98.94
1776;BME280;885;42.626;23.200;2023-07-30T04:42:23;86872.38;;;17.27;99.43
1776;BME280;885;42.626;23.200;2023-07-30T04:44:49;86970.81;;;17.28;99.48
1776;BME280;885;42.626;23.200;2023-07-30T04:47:17;86673.41;;;17.27;98.05
1776;BME280;885;42.626;23.200;2023-07-30T04:49:44;86810.88;;;17.35;97.82
1776;BME280;885;42.626;23.200;2023-07-30T04:52:11;87005.19;;;17.42;97.35
1776;BME280;885;42.626;23.200;2023-07-30T04:54:38;86989.06;;;17.47;96.78
1776;BME280;885;42.626;23.200;2023-07-30T04:57:05;86889.75;;;17.51;95.56
1776;BME280;885;42.626;23.200;2023-07-30T04:59:32;86904.47;;;17.57;94.91
1776;BME280;885;42.626;23.200;2023-07-30T05:02:00;87017.75;;;17.62;95.03
1776;BME280;885;42.626;23.200;2023-07-30T05:04:28;87120.03;;;17.72;94.98
1776;BME280;885;42.626;23.200;2023-07-30T05:06:54;87167.31;;;17.75;94.59
1776;BME280;885;42.626;23.200;2023-07-30T05:09:21;87368.25;;;17.83;95.24
1776;BME280;885;42.626;23.200;2023-07-30T05:11:48;87409.22;;;17.83;95.46
1776;BME280;885;42.626;23.200;2023-07-30T05:14:15;87702.28;;;17.91;96.49
1776;BME280;885;42.626;23.200;2023-07-30T05:16:42;87859.53;;;17.99;96.68
1776;BME280;885;42.626;23.200;2023-07-30T05:19:08;88187.75;;;18.13;96.81
1776;BME280;885;42.626;23.200;2023-07-30T05:21:36;88337.88;;;18.22;96.75
1776;BME280;885;42.626;23.200;2023-07-30T05:24:04;88447.13;;;18.26;96.42
1776;BME280;885;42.626;23.200;2023-07-30T05:26:31;88541.03;;;18.38;95.37
1776;BME280;885;42.626;23.200;2023-07-30T05:28:57;88738.84;;;18.45;95.82
1776;BME280;885;42.626;23.200;2023-07-30T05:31:24;89066.28;;;18.55;96.31
1776;BME280;885;42.626;23.200;2023-07-30T05:33:51;89245.50;;;18.61;96.68
1776;BME280;885;42.626;23.200;2023-07-30T05:36:18;89375.06;;;18.67;96.87
1776;BME280;885;42.626;23.200;2023-07-30T05:38:46;89491.78;;;18.68;96.82
1776;BME280;885;42.626;23.200;2023-07-30T05:41:13;89501.84;;;18.69;96.93
1776;BME280;885;42.626;23.200;2023-07-30T05:43:40;89737.38;;;18.75;97.32
1776;BME280;885;42.626;23.200;2023-07-30T05:46:07;90027.03;;;18.82;98.46
1776;BME280;885;42.626;23.200;2023-07-30T05:48:34;90126.47;;;18.87;98.06
1776;BME280;885;42.626;23.200;2023-07-30T05:51:00;90060.78;;;18.91;96.86
1776;BME280;885;42.626;23.200;2023-07-30T05:53:27;90134.19;;;19.04;94.58
1776;BME280;885;42.626;23.200;2023-07-30T05:55:56;90397.28;;;19.19;94.67
1776;BME280;885;42.626;23.200;2023-07-30T05:58:22;90611.47;;;19.38;93.08
1776;BME280;885;42.626;23.200;2023-07-30T06:00:49;91068.31;;;19.62;92.35
1776;BME280;885;42.626;23.200;2023-07-30T06:03:16;91670.09;;;19.93;91.35
1776;BME280;885;42.626;23.200;2023-07-30T06:05:43;92578.47;;;20.29;91.28
1776;BME280;885;42.626;23.200;2023-07-30T06:08:10;93413.84;;;20.76;88.89
1776;BME280;885;42.626;23.200;2023-07-30T06:10:37;93873.56;;;21.13;85.53
1776;BME280;885;42.626;23.200;2023-07-30T06:13:07;94393.41;;;21.39;84.61
1776;BME280;885;42.626;23.200;2023-07-30T06:15:35;94297.56;;;21.35;84.84
1776;BME280;885;42.626;23.200;2023-07-30T06:18:04;94394.72;;;21.36;85.27
1776;BME280;885;42.626;23.200;2023-07-30T06:20:31;93963.94;;;21.27;84.59
1776;BME280;885;42.626;23.200;2023-07-30T06:22:58;94279.31;;;21.32;85.91
1776;BME280;885;42.626;23.200;2023-07-30T06:25:25;95356.88;;;21.78;83.98
1776;BME280;885;42.626;23.200;2023-07-30T06:27:51;97689.03;;;22.64;82.41
1776;BME280;885;42.626;23.200;2023-07-30T06:30:20;99005.56;;;23.29;77.05
1776;BME280;885;42.626;23.200;2023-07-30T06:32:47;99086.44;;;23.55;74.53
1776;BME280;885;42.626;23.200;2023-07-30T06:35:14;99132.53;;;23.69;72.76
1776;BME280;885;42.626;23.200;2023-07-30T06:37:41;99108.03;;;23.78;71.53
1776;BME280;885;42.626;23.200;2023-07-30T06:40:08;99917.34;;;24.02;71.78
1776;BME280;885;42.626;23.200;2023-07-30T06:42:35;100029.66;;;24.25;68.75
1776;BME280;885;42.626;23.200;2023-07-30T06:45:02;100409.84;;;24.44;68.31
1776;BME280;885;42.626;23.200;2023-07-30T06:47:30;100849.44;;;24.64;67.97
1776;BME280;885;42.626;23.200;2023-07-30T06:49:58;100927.22;;;24.67;67.84
1776;BME280;885;42.626;23.200;2023-07-30T06:52:24;100876.31;;;24.73;67.37
1776;BME280;885;42.626;23.200;2023-07-30T06:54:51;100632.44;;;24.67;67.83
1776;BME280;885;42.626;23.200;2023-07-30T06:57:18;100609.63;;;24.65;68.11
1776;BME280;885;42.626;23.200;2023-07-30T06:59:45;99705.50;;;24.51;66.68
1776;BME280;885;42.626;23.200;2023-07-30T07:02:11;98962.13;;;24.21;68.51
1776;BME280;885;42.626;23.200;2023-07-30T07:04:41;98423.63;;;23.93;71.18
1776;BME280;885;42.626;23.200;2023-07-30T07:07:08;97884.13;;;23.80;71.27
1776;BME280;885;42.626;23.200;2023-07-30T07:09:35;98138.88;;;23.79;72.51
1776;BME280;885;42.626;23.200;2023-07-30T07:12:02;96795.72;;;23.68;66.28
1776;BME280;885;42.626;23.200;2023-07-30T07:14:29;98153.25;;;23.84;72.13
1776;BME280;885;42.626;23.200;2023-07-30T07:16:56;98828.28;;;24.10;70.81
1776;BME280;885;42.626;23.200;2023-07-30T07:19:23;99276.06;;;24.26;69.93
1776;BME280;885;42.626;23.200;2023-07-30T07:21:52;99960.13;;;24.40;70.72
1776;BME280;885;42.626;23.200;2023-07-30T07:27:34;100428.41;;;24.52;71.46
1776;BME280;885;42.626;23.200;2023-07-30T07:30:15;100382.00;;;24.71;68.01
1776;BME280;885;42.626;23.200;2023-07-30T07:32:45;100276.44;;;24.78;66.70
1776;BME280;885;42.626;23.200;2023-07-30T07:38:00;99949.97;;;24.98;62.16
1776;BME280;885;42.626;23.200;2023-07-30T07:40:27;100512.59;;;25.03;64.60
1776;BME280;885;42.626;23.200;2023-07-30T07:42:56;100769.06;;;25.05;65.59
1776;BME280;885;42.626;23.200;2023-07-30T07:45:23;100783.72;;;25.16;63.64
1776;BME280;885;42.626;23.200;2023-07-30T07:47:50;101758.47;;;25.24;66.79
1776;BME280;885;42.626;23.200;2023-07-30T07:50:17;100462.72;;;25.23;61.27
1776;BME280;885;42.626;23.200;2023-07-30T07:52:44;101235.56;;;25.30;63.90
1776;BME280;885;42.626;23.200;2023-07-30T07:55:12;100361.00;;;25.39;59.82
1776;BME280;885;42.626;23.200;2023-07-30T07:57:38;101156.31;;;25.43;62.17
1776;BME280;885;42.626;23.200;2023-07-30T08:00:07;101537.41;;;25.51;62.91
1776;BME280;885;42.626;23.200;2023-07-30T08:02:34;101761.75;;;25.56;63.29
1776;BME280;885;42.626;23.200;2023-07-30T08:05:00;101899.91;;;25.65;61.96
1776;BME280;885;42.626;23.200;2023-07-30T08:07:28;102383.97;;;25.75;63.00
1776;BME280;885;42.626;23.200;2023-07-30T08:09:55;102639.41;;;25.81;63.01
1776;BME280;885;42.626;23.200;2023-07-30T08:12:23;103355.44;;;25.90;63.95
1776;BME280;885;42.626;23.200;2023-07-30T08:14:53;104473.13;;;26.08;66.34
1776;BME280;885;42.626;23.200;2023-07-30T08:17:21;103515.91;;;26.20;60.79
1776;BME280;885;42.626;23.200;2023-07-30T08:19:48;102276.06;;;26.28;56.54
1776;BME280;885;42.626;23.200;2023-07-30T08:22:14;103230.00;;;26.39;59.19
1776;BME280;885;42.626;23.200;2023-07-30T08:24:44;103963.97;;;26.49;60.08
1776;BME280;885;42.626;23.200;2023-07-30T08:27:13;103941.34;;;26.65;57.72
1776;BME280;885;42.626;23.200;2023-07-30T08:29:41;103920.06;;;26.81;55.92
1776;BME280;885;42.626;23.200;2023-07-30T08:32:09;103958.22;;;26.94;54.93
1776;BME280;885;42.626;23.200;2023-07-30T08:34:36;104417.06;;;27.02;55.38
1776;BME280;885;42.626;23.200;2023-07-30T08:37:03;104571.81;;;27.14;54.58
1776;BME280;885;42.626;23.200;2023-07-30T08:39:30;105169.16;;;27.27;54.99
1776;BME280;885;42.626;23.200;2023-07-30T08:41:57;105032.47;;;27.37;53.49
1776;BME280;885;42.626;23.200;2023-07-30T08:44:25;105317.88;;;27.41;54.96
1776;BME280;885;42.626;23.200;2023-07-30T08:46:53;105415.50;;;27.52;53.30
1776;BME280;885;42.626;23.200;2023-07-30T08:49:20;105255.19;;;27.65;52.14
1776;BME280;885;42.626;23.200;2023-07-30T08:51:48;105537.38;;;27.78;51.56
1776;BME280;885;42.626;23.200;2023-07-30T08:54:20;105759.69;;;27.91;50.83
1776;BME280;885;42.626;23.200;2023-07-30T08:56:49;106283.41;;;27.95;52.16
1776;BME280;885;42.626;23.200;2023-07-30T08:59:16;105952.28;;;28.03;50.30
1776;BME280;885;42.626;23.200;2023-07-30T09:01:45;105386.09;;;28.10;48.42
1776;BME280;885;42.626;23.200;2023-07-30T09:04:17;105745.78;;;28.16;49.24
1776;BME280;885;42.626;23.200;2023-07-30T09:06:48;106601.06;;;28.30;50.15
1776;BME280;885;42.626;23.200;2023-07-30T09:09:15;106315.97;;;28.38;48.77
1776;BME280;885;42.626;23.200;2023-07-30T09:11:42;104751.34;;;28.41;45.44
1776;BME280;885;42.626;23.200;2023-07-30T09:14:09;105697.69;;;28.55;46.82
1776;BME280;885;42.626;23.200;2023-07-30T09:16:36;105511.59;;;28.61;45.98
1776;BME280;885;42.626;23.200;2023-07-30T09:19:03;105812.72;;;28.71;46.13
1776;BME280;885;42.626;23.200;2023-07-30T09:21:34;105635.34;;;28.81;44.30
1776;BME280;885;42.626;23.200;2023-07-30T09:24:02;106580.13;;;28.97;45.42
1776;BME280;885;42.626;23.200;2023-07-30T09:26:40;107070.53;;;29.12;45.21
1776;BME280;885;42.626;23.200;2023-07-30T09:29:08;107103.94;;;29.23;44.23
1776;BME280;885;42.626;23.200;2023-07-30T09:31:45;106693.03;;;29.26;43.56
1776;BME280;885;42.626;23.200;2023-07-30T09:34:15;105273.09;;;28.86;44.44
1776;BME280;885;42.626;23.200;2023-07-30T09:36:45;106247.63;;;29.11;44.58
1776;BME280;885;42.626;23.200;2023-07-30T09:39:16;107409.91;;;29.32;45.30
1776;BME280;885;42.626;23.200;2023-07-30T09:41:44;108332.34;;;29.49;45.81
1776;BME280;885;42.626;23.200;2023-07-30T09:44:11;108440.88;;;29.59;45.52
1776;BME280;885;42.626;23.200;2023-07-30T09:46:42;108391.25;;;29.73;43.51
1776;BME280;885;42.626;23.200;2023-07-30T09:49:10;107803.44;;;29.74;42.15
1776;BME280;885;42.626;23.200;2023-07-30T09:51:37;106679.69;;;29.49;42.32
1776;BME280;885;42.626;23.200;2023-07-30T09:54:06;105396.28;;;29.11;43.47
1776;BME280;885;42.626;23.200;2023-07-30T09:56:33;106969.09;;;29.39;44.52
1776;BME280;885;42.626;23.200;2023-07-30T09:59:00;107567.84;;;29.62;43.78
1776;BME280;885;42.626;23.200;2023-07-30T10:01:28;108443.03;;;29.87;43.41
1776;BME280;885;42.626;23.200;2023-07-30T10:03:57;109509.09;;;30.01;44.41
1776;BME280;885;42.626;23.200;2023-07-30T10:06:25;106431.03;;;29.64;41.16
1776;BME280;885;42.626;23.200;2023-07-30T10:08:55;107307.03;;;29.72;42.32
1776;BME280;885;42.626;23.200;2023-07-30T10:11:24;108192.81;;;30.01;42.00
1776;BME280;885;42.626;23.200;2023-07-30T10:13:53;109738.19;;;30.31;42.53
1776;BME280;885;42.626;23.200;2023-07-30T10:16:25;110528.94;;;30.60;41.54
1776;BME280;885;42.626;23.200;2023-07-30T10:18:56;111277.75;;;30.81;41.93
1776;BME280;885;42.626;23.200;2023-07-30T10:21:25;110457.66;;;30.75;40.08
1776;BME280;885;42.626;23.200;2023-07-30T10:23:59;110488.09;;;30.76;40.24
1776;BME280;885;42.626;23.200;2023-07-30T10:26:29;111267.56;;;30.92;40.41
1776;BME280;885;42.626;23.200;2023-07-30T10:29:13;112345.63;;;31.12;41.34
1776;BME280;885;42.626;23.200;2023-07-30T10:31:40;112561.88;;;31.25;40.42
1776;BME280;885;42.626;23.200;2023-07-30T10:34:06;113019.38;;;31.36;40.38
1776;BME280;885;42.626;23.200;2023-07-30T10:36:40;113534.69;;;31.57;40.01
1776;BME280;885;42.626;23.200;2023-07-30T10:39:15;113551.25;;;31.69;39.12
1776;BME280;885;42.626;23.200;2023-07-30T10:41:49;113415.41;;;31.73;38.46
1776;BME280;885;42.626;23.200;2023-07-30T10:44:23;114011.97;;;31.82;38.67
1776;BME280;885;42.626;23.200;2023-07-30T10:46:50;113279.44;;;31.88;37.64
1776;BME280;885;42.626;23.200;2023-07-30T10:49:17;113837.63;;;31.97;37.95
1776;BME280;885;42.626;23.200;2023-07-30T10:51:44;111253.34;;;31.79;35.50
1776;BME280;885;42.626;23.200;2023-07-30T10:54:10;105137.44;;;30.32;35.28
1776;BME280;885;42.626;23.200;2023-07-30T10:56:38;104302.53;;;30.03;36.53
1776;BME280;885;42.626;23.200;2023-07-30T10:59:07;106005.84;;;30.43;36.71
1776;BME280;885;42.626;23.200;2023-07-30T11:01:36;107840.25;;;30.87;37.27
1776;BME280;885;42.626;23.200;2023-07-30T11:04:09;107842.66;;;31.04;36.44
1776;BME280;885;42.626;23.200;2023-07-30T11:06:37;107760.56;;;31.16;35.27
1776;BME280;885;42.626;23.200;2023-07-30T11:09:04;106935.19;;;30.89;36.05
1776;BME280;885;42.626;23.200;2023-07-30T11:11:31;107362.41;;;30.92;36.69
1776;BME280;885;42.626;23.200;2023-07-30T11:13:58;108626.94;;;31.29;36.39
1776;BME280;885;42.626;23.200;2023-07-30T11:16:26;105940.81;;;30.57;36.62
1776;BME280;885;42.626;23.200;2023-07-30T11:18:53;105696.44;;;30.52;36.46
1776;BME280;885;42.626;23.200;2023-07-30T11:21:20;104964.34;;;30.32;36.89
1776;BME280;885;42.626;23.200;2023-07-30T11:23:47;106461.59;;;30.83;36.56
1776;BME280;885;42.626;23.200;2023-07-30T11:26:16;107570.09;;;31.03;36.29
1776;BME280;885;42.626;23.200;2023-07-30T11:28:43;108429.03;;;31.32;35.93
1776;BME280;885;42.626;23.200;2023-07-30T11:31:23;109469.34;;;31.62;36.04
1776;BME280;885;42.626;23.200;2023-07-30T11:33:54;109832.41;;;31.73;35.78
1776;BME280;885;42.626;23.200;2023-07-30T11:36:22;111383.22;;;32.04;35.92
1776;BME280;885;42.626;23.200;2023-07-30T11:38:51;112470.56;;;32.36;35.69
1776;BME280;885;42.626;23.200;2023-07-30T11:41:19;113188.00;;;32.61;35.37
1776;BME280;885;42.626;23.200;2023-07-30T11:43:47;114038.25;;;32.82;34.99
1776;BME280;885;42.626;23.200;2023-07-30T11:46:16;113896.44;;;32.96;34.46
1776;BME280;885;42.626;23.200;2023-07-30T11:48:45;113155.63;;;32.86;34.05
1776;BME280;885;42.626;23.200;2023-07-30T11:51:21;109978.13;;;32.08;34.44
1776;BME280;885;42.626;23.200;2023-07-30T11:53:49;108138.31;;;31.60;34.55
1776;BME280;885;42.626;23.200;2023-07-30T11:56:18;109583.69;;;31.78;35.97
1776;BME280;885;42.626;23.200;2023-07-30T11:58:45;111136.16;;;32.10;36.33
1776;BME280;885;42.626;23.200;2023-07-30T12:01:13;111668.53;;;32.37;35.12
1776;BME280;885;42.626;23.200;2023-07-30T12:03:40;112443.91;;;32.61;35.11
1776;BME280;885;42.626;23.200;2023-07-30T12:06:09;110636.41;;;32.21;34.91
1776;BME280;885;42.626;23.200;2023-07-30T12:08:37;111302.91;;;32.24;35.97
1776;BME280;885;42.626;23.200;2023-07-30T12:11:05;111052.63;;;32.27;35.54
1776;BME280;885;42.626;23.200;2023-07-30T12:13:33;110957.53;;;32.01;37.01
1776;BME280;885;42.626;23.200;2023-07-30T12:16:00;111404.13;;;31.89;39.19
1776;BME280;885;42.626;23.200;2023-07-30T12:18:27;111512.03;;;32.01;37.68
1776;BME280;885;42.626;23.200;2023-07-30T12:20:54;112450.41;;;32.28;37.74
1776;BME280;885;42.626;23.200;2023-07-30T12:23:21;112600.44;;;32.59;35.77
1776;BME280;885;42.626;23.200;2023-07-30T12:25:50;113348.34;;;32.81;34.98
1776;BME280;885;42.626;23.200;2023-07-30T12:28:17;113328.50;;;32.87;34.83
1776;BME280;885;42.626;23.200;2023-07-30T12:30:44;111449.44;;;32.50;34.24
1776;BME280;885;42.626;23.200;2023-07-30T12:51:18;109459.84;;;31.89;36.00
1776;BME280;885;42.626;23.200;2023-07-30T12:53:45;109322.00;;;31.76;36.95
1776;BME280;885;42.626;23.200;2023-07-30T12:56:12;109789.63;;;31.62;39.45
1776;BME280;885;42.626;23.200;2023-07-30T12:58:40;108496.16;;;31.48;38.44
1776;BME280;885;42.626;23.200;2023-07-30T13:01:07;108880.00;;;31.33;39.76
1776;BME280;885;42.626;23.200;2023-07-30T13:03:35;107646.03;;;31.03;39.99
1776;BME280;885;42.626;23.200;2023-07-30T13:06:02;107981.41;;;31.23;38.99
1776;BME280;885;42.626;23.200;2023-07-30T13:08:30;109082.22;;;31.45;39.74
1776;BME280;885;42.626;23.200;2023-07-30T13:10:57;108956.78;;;31.58;37.98
1776;BME280;885;42.626;23.200;2023-07-30T13:13:24;109800.16;;;31.80;37.63
1776;BME280;885;42.626;23.200;2023-07-30T13:15:51;110697.56;;;32.03;37.51
1776;BME280;885;42.626;23.200;2023-07-30T13:18:17;110394.59;;;31.99;37.81
1776;BME280;885;42.626;23.200;2023-07-30T13:20:44;107535.69;;;31.21;38.99
1776;BME280;885;42.626;23.200;2023-07-30T13:23:14;106573.75;;;30.97;38.65
1776;BME280;885;42.626;23.200;2023-07-30T13:25:43;105967.50;;;30.77;38.85
1776;BME280;885;42.626;23.200;2023-07-30T13:28:10;106951.88;;;30.57;43.39
1776;BME280;885;42.626;23.200;2023-07-30T13:30:37;105379.44;;;30.41;41.52
1776;BME280;885;42.626;23.200;2023-07-30T13:33:04;106055.69;;;30.31;43.90
1776;BME280;885;42.626;23.200;2023-07-30T13:35:31;105169.03;;;30.12;43.63
1776;BME280;885;42.626;23.200;2023-07-30T13:37:59;104764.28;;;30.02;43.09
1776;BME280;885;42.626;23.200;2023-07-30T13:40:26;104733.13;;;29.89;44.55
1776;BME280;885;42.626;23.200;2023-07-30T13:42:55;104066.66;;;29.75;44.46
1776;BME280;885;42.626;23.200;2023-07-30T13:45:22;103785.41;;;29.71;43.77